Time;durP1;ratioP1;P1;durP2;ratioP2;P2;SDS_P1;SDS_P2;PMS_P1;PMS_P2;Temp;Humidity;BMP_temperature;BMP_pressure;BME280_temperature;BME280_humidity;BME280_pressure;Samples;Min_cycle;Max_cycle;Signal;HPM_P1;HPM_P2
2023/10/24 00:02:08;;;;;;;23.10;7.80;;;;;;;6.23;95.39;99970.27;110434;1274;22203;-77
2023/10/24 00:04:39;;;;;;;21.10;8.20;;;;;;;6.21;95.32;99968.14;110456;1275;22822;-77
2023/10/24 00:07:09;;;;;;;23.10;8.20;;;;;;;6.19;95.30;99968.45;110419;1275;22223;-77
2023/10/24 00:09:40;;;;;;;23.10;9.70;;;;;;;6.18;95.36;99965.23;110439;1275;23715;-77
2023/10/24 00:12:11;;;;;;;24.20;7.60;;;;;;;6.17;95.38;99959.66;110393;1275;22934;-77
2023/10/24 00:14:43;;;;;;;27.80;9.70;;;;;;;6.16;95.43;99957.50;110464;1260;22383;-77
2023/10/24 00:17:13;;;;;;;22.30;8.30;;;;;;;6.15;95.49;99956.56;110435;1269;22180;-77
2023/10/24 00:19:44;;;;;;;24.80;8.00;;;;;;;6.13;95.53;99955.05;110388;1275;22200;-77
2023/10/24 00:22:15;;;;;;;23.40;7.50;;;;;;;6.12;95.70;99955.80;110435;1275;22138;-77
2023/10/24 00:24:48;;;;;;;24.70;8.20;;;;;;;6.12;96.01;99964.91;110413;1275;22956;-77
2023/10/24 00:27:18;;;;;;;25.20;9.40;;;;;;;6.14;96.26;99967.23;110431;1275;22154;-77
2023/10/24 00:29:52;;;;;;;20.60;7.60;;;;;;;6.15;96.40;99962.73;110434;1275;22239;-77
2023/10/24 00:32:23;;;;;;;25.20;8.30;;;;;;;6.16;96.45;99960.23;110426;1275;22324;-77
2023/10/24 00:34:54;;;;;;;20.00;7.40;;;;;;;6.18;96.66;99948.11;110481;1274;22197;-77
2023/10/24 00:37:24;;;;;;;19.30;6.90;;;;;;;6.21;96.85;99940.65;110451;1275;22387;-77
2023/10/24 00:39:58;;;;;;;19.40;6.40;;;;;;;6.27;97.57;99939.38;110448;1270;22936;-77
2023/10/24 00:42:28;;;;;;;24.80;8.30;;;;;;;6.35;98.38;99942.99;110453;1274;23383;-77
2023/10/24 00:44:59;;;;;;;24.80;8.40;;;;;;;6.43;98.82;99943.45;110454;1272;22157;-77
2023/10/24 00:47:30;;;;;;;20.60;7.90;;;;;;;6.50;98.90;99935.98;110436;1274;22313;-77
2023/10/24 00:50:01;;;;;;;24.20;9.00;;;;;;;6.57;98.95;99930.88;110440;1275;22202;-77
2023/10/24 00:52:32;;;;;;;23.80;7.50;;;;;;;6.64;99.46;99931.36;110439;1274;22316;-77
2023/10/24 00:55:05;;;;;;;25.30;8.20;;;;;;;6.70;99.55;99928.32;110454;1274;22140;-77
2023/10/24 00:57:37;;;;;;;23.80;7.80;;;;;;;6.76;99.66;99924.30;110444;1274;22482;-77
2023/10/24 01:00:11;;;;;;;21.90;8.30;;;;;;;6.82;99.90;99920.60;110445;1275;22287;-77
2023/10/24 01:02:42;;;;;;;19.70;6.50;;;;;;;6.89;100.00;99917.69;110465;1275;22255;-76
2023/10/24 01:05:15;;;;;;;20.90;7.70;;;;;;;6.96;100.00;99912.00;110440;1275;22325;-76
2023/10/24 01:07:45;;;;;;;22.40;7.40;;;;;;;7.02;100.00;99898.91;110418;1275;22144;-76
2023/10/24 01:10:16;;;;;;;25.50;7.90;;;;;;;7.08;100.00;99895.23;110385;1275;22254;-76
2023/10/24 01:12:47;;;;;;;20.00;7.50;;;;;;;7.13;100.00;99897.27;110447;1275;22287;-76
2023/10/24 01:15:18;;;;;;;22.00;8.80;;;;;;;7.20;100.00;99902.94;110537;1275;22168;-76
2023/10/24 01:17:55;;;;;;;23.50;9.00;;;;;;;7.25;100.00;99900.54;110611;1274;22226;-76
2023/10/24 01:20:26;;;;;;;20.50;8.50;;;;;;;7.31;100.00;99896.56;110479;1271;23098;-76
2023/10/24 01:22:56;;;;;;;21.80;8.10;;;;;;;7.35;100.00;99890.81;110411;1275;23154;-76
2023/10/24 01:25:30;;;;;;;24.10;8.60;;;;;;;7.42;100.00;99890.77;110441;1275;22287;-76
2023/10/24 01:28:03;;;;;;;28.20;8.70;;;;;;;7.46;100.00;99896.30;110461;1275;22172;-76
2023/10/24 01:30:33;;;;;;;23.20;9.30;;;;;;;7.49;100.00;99893.52;110457;1266;22201;-76
2023/10/24 01:33:04;;;;;;;24.80;8.20;;;;;;;7.53;100.00;99894.92;110454;1275;22254;-76
2023/10/24 01:35:35;;;;;;;24.50;8.10;;;;;;;7.56;100.00;99896.30;110253;1274;226922;-76
2023/10/24 01:38:06;;;;;;;26.20;8.60;;;;;;;7.59;100.00;99901.08;110434;1274;22242;-76
2023/10/24 01:40:37;;;;;;;27.80;9.10;;;;;;;7.61;100.00;99897.98;110453;1274;22206;-76
2023/10/24 01:43:07;;;;;;;29.70;8.60;;;;;;;7.62;100.00;99884.65;110414;1274;22261;-78
2023/10/24 01:45:38;;;;;;;23.60;8.40;;;;;;;7.66;100.00;99878.30;110410;1275;22198;-77
2023/10/24 01:48:09;;;;;;;27.30;8.40;;;;;;;7.69;100.00;99872.83;110416;1274;22209;-77
2023/10/24 01:50:40;;;;;;;24.70;8.80;;;;;;;7.73;100.00;99865.80;110447;1275;22254;-77
2023/10/24 01:53:10;;;;;;;23.30;9.00;;;;;;;7.76;100.00;99857.71;110386;1274;22261;-78
2023/10/24 01:55:42;;;;;;;21.10;8.20;;;;;;;7.80;100.00;99852.79;110445;1274;22353;-77
2023/10/24 01:58:12;;;;;;;20.70;7.80;;;;;;;7.84;100.00;99855.20;110457;1275;22228;-77
2023/10/24 02:00:43;;;;;;;20.40;7.20;;;;;;;7.86;100.00;99858.14;110420;1275;22246;-78
2023/10/24 02:03:13;;;;;;;20.90;7.20;;;;;;;7.87;100.00;99860.69;110525;1260;22220;-77
2023/10/24 02:05:44;;;;;;;22.20;7.90;;;;;;;7.88;100.00;99858.80;110468;1274;22141;-77
2023/10/24 02:08:15;;;;;;;23.70;8.10;;;;;;;7.90;100.00;99860.55;110435;1275;22808;-77
2023/10/24 02:10:46;;;;;;;20.90;7.90;;;;;;;7.91;100.00;99856.94;110422;1274;22204;-78
2023/10/24 02:13:16;;;;;;;22.90;7.80;;;;;;;7.93;100.00;99860.73;110457;1274;22364;-76
2023/10/24 02:15:47;;;;;;;22.20;8.40;;;;;;;7.94;100.00;99849.23;110451;1274;22970;-77
2023/10/24 02:18:18;;;;;;;23.30;7.60;;;;;;;7.94;100.00;99843.34;110441;1272;22971;-77
2023/10/24 02:20:49;;;;;;;19.80;7.60;;;;;;;7.97;100.00;99846.33;110448;1274;23257;-77
2023/10/24 02:23:20;;;;;;;23.90;9.20;;;;;;;7.99;100.00;99844.08;110438;1267;22224;-77
2023/10/24 02:25:51;;;;;;;22.30;7.30;;;;;;;8.00;100.00;99847.40;110473;1263;23131;-77
2023/10/24 02:28:22;;;;;;;21.00;7.20;;;;;;;8.01;100.00;99848.55;110461;1274;22703;-77
2023/10/24 02:30:52;;;;;;;20.70;7.00;;;;;;;8.04;100.00;99847.80;110435;1275;22257;-77
2023/10/24 02:33:23;;;;;;;24.00;7.50;;;;;;;8.06;100.00;99850.16;110416;1262;22159;-77
2023/10/24 02:35:54;;;;;;;27.90;8.60;;;;;;;8.07;100.00;99855.72;110453;1273;22265;-77
2023/10/24 02:38:25;;;;;;;19.20;7.30;;;;;;;8.08;100.00;99858.48;110488;1275;22364;-77
2023/10/24 02:40:55;;;;;;;19.60;8.20;;;;;;;8.08;100.00;99864.27;110418;1275;22877;-77
2023/10/24 02:43:27;;;;;;;19.60;7.90;;;;;;;8.09;100.00;99865.30;110443;1274;22320;-77
2023/10/24 02:45:59;;;;;;;24.20;7.40;;;;;;;8.10;100.00;99862.65;110419;1275;23441;-77
2023/10/24 02:48:29;;;;;;;22.10;8.60;;;;;;;8.11;100.00;99860.30;110419;1275;23630;-77
2023/10/24 02:51:00;;;;;;;23.20;8.80;;;;;;;8.14;100.00;99857.23;110472;1274;22252;-77
2023/10/24 02:53:31;;;;;;;24.70;7.70;;;;;;;8.17;100.00;99856.83;110422;1274;22325;-77
2023/10/24 02:56:04;;;;;;;30.60;9.80;;;;;;;8.19;100.00;99851.48;110457;1274;22233;-77
2023/10/24 02:58:35;;;;;;;22.90;8.30;;;;;;;8.20;100.00;99853.11;110439;1274;22138;-77
2023/10/24 03:01:06;;;;;;;22.90;8.30;;;;;;;8.21;100.00;99852.02;110412;1274;22393;-77
2023/10/24 03:03:37;;;;;;;25.40;9.60;;;;;;;8.23;100.00;99859.24;110440;1274;22355;-77
2023/10/24 03:06:16;;;;;;;25.10;9.90;;;;;;;8.24;100.00;99859.61;110403;1273;22186;-78
2023/10/24 03:08:48;;;;;;;27.20;9.10;;;;;;;8.25;100.00;99856.80;110412;1274;22273;-77
2023/10/24 03:11:24;;;;;;;21.00;8.90;;;;;;;8.26;100.00;99846.33;110439;1274;22228;-77
2023/10/24 03:13:55;;;;;;;28.00;9.30;;;;;;;8.28;100.00;99830.29;110418;1274;22722;-78
2023/10/24 03:16:28;;;;;;;31.70;10.60;;;;;;;8.30;100.00;99828.67;110440;1274;22307;-77
2023/10/24 03:18:59;;;;;;;25.60;8.40;;;;;;;8.31;100.00;99828.35;110453;1274;23122;-78
2023/10/24 03:21:30;;;;;;;19.00;8.30;;;;;;;8.32;100.00;99828.06;110417;1274;22322;-77
2023/10/24 03:24:02;;;;;;;25.50;8.70;;;;;;;8.33;100.00;99830.41;110447;1275;22463;-78
2023/10/24 03:26:32;;;;;;;23.50;7.60;;;;;;;8.33;100.00;99829.39;110482;1273;23014;-77
2023/10/24 03:29:03;;;;;;;21.60;8.10;;;;;;;8.34;100.00;99835.33;110435;1275;22264;-77
2023/10/24 03:31:34;;;;;;;23.40;9.50;;;;;;;8.34;100.00;99834.88;110410;1275;22916;-77
2023/10/24 03:34:07;;;;;;;25.90;10.50;;;;;;;8.36;100.00;99846.26;110375;1268;22931;-76
2023/10/24 03:36:38;;;;;;;23.90;9.60;;;;;;;8.38;100.00;99843.36;110413;1270;22321;-78
2023/10/24 03:39:09;;;;;;;21.50;9.30;;;;;;;8.39;100.00;99817.08;110471;1274;22188;-77
2023/10/24 03:41:40;;;;;;;25.70;9.90;;;;;;;8.40;100.00;99791.77;110440;1274;22456;-77
2023/10/24 03:44:10;;;;;;;24.30;9.20;;;;;;;8.42;100.00;99780.83;110442;1270;22380;-78
2023/10/24 03:46:41;;;;;;;25.40;9.20;;;;;;;8.45;100.00;99778.97;110402;1272;22197;-78
2023/10/24 03:49:12;;;;;;;28.00;9.30;;;;;;;8.46;100.00;99783.80;110437;1274;22127;-78
2023/10/24 03:51:43;;;;;;;25.00;9.30;;;;;;;8.47;100.00;99788.68;110343;1271;22418;-78
2023/10/24 03:54:14;;;;;;;23.60;9.50;;;;;;;8.49;100.00;99804.59;110374;1268;22350;-77
2023/10/24 03:56:45;;;;;;;27.00;9.70;;;;;;;8.50;100.00;99821.45;110428;1270;22239;-79
2023/10/24 03:59:16;;;;;;;22.80;8.10;;;;;;;8.50;100.00;99832.55;110378;1267;22378;-78
2023/10/24 04:01:47;;;;;;;22.60;8.70;;;;;;;8.49;100.00;99843.90;110328;1275;22978;-78
2023/10/24 04:04:18;;;;;;;23.60;8.90;;;;;;;8.47;100.00;99843.29;110378;1270;22360;-80
2023/10/24 04:06:48;;;;;;;25.30;9.10;;;;;;;8.46;100.00;99841.51;110370;1272;23117;-79
2023/10/24 04:09:19;;;;;;;30.00;10.10;;;;;;;8.44;100.00;99840.01;110405;1275;22541;-77
2023/10/24 04:11:50;;;;;;;21.60;9.30;;;;;;;8.44;100.00;99845.77;110358;1270;22227;-79
2023/10/24 04:14:21;;;;;;;25.40;8.80;;;;;;;8.43;100.00;99847.88;110380;1270;22283;-78
2023/10/24 04:16:52;;;;;;;23.00;9.10;;;;;;;8.41;100.00;99839.14;110403;1270;22852;-78
2023/10/24 04:19:23;;;;;;;22.60;9.40;;;;;;;8.40;100.00;99833.95;110394;1270;23095;-78
2023/10/24 04:21:54;;;;;;;21.50;8.20;;;;;;;8.38;100.00;99832.39;110350;1270;22377;-77
2023/10/24 04:24:24;;;;;;;21.90;8.50;;;;;;;8.34;100.00;99832.02;110399;1267;22399;-79
2023/10/24 04:26:55;;;;;;;24.50;10.40;;;;;;;8.31;100.00;99823.51;110412;1270;22194;-77
2023/10/24 04:29:26;;;;;;;20.70;8.70;;;;;;;8.31;100.00;99813.59;110377;1263;23350;-77
2023/10/24 04:31:56;;;;;;;20.60;8.90;;;;;;;8.30;100.00;99808.80;110391;1274;22157;-77
2023/10/24 04:34:27;;;;;;;24.30;8.80;;;;;;;8.29;100.00;99806.96;110406;1261;22309;-77
2023/10/24 04:36:58;;;;;;;22.00;8.60;;;;;;;8.29;100.00;99805.13;110405;1263;22155;-77
2023/10/24 04:39:30;;;;;;;28.40;10.50;;;;;;;8.30;100.00;99801.33;110414;1274;22339;-77
2023/10/24 04:42:00;;;;;;;22.50;8.90;;;;;;;8.30;100.00;99805.13;110433;1274;22297;-77
2023/10/24 04:44:32;;;;;;;23.60;9.00;;;;;;;8.30;100.00;99801.83;110429;1275;22184;-77
2023/10/24 04:47:02;;;;;;;27.40;10.60;;;;;;;8.30;100.00;99796.92;110438;1275;22171;-77
2023/10/24 04:49:36;;;;;;;28.60;11.00;;;;;;;8.31;100.00;99793.11;110407;1270;22265;-77
2023/10/24 04:52:07;;;;;;;28.40;9.40;;;;;;;8.33;100.00;99793.09;110365;1275;22201;-77
2023/10/24 04:54:38;;;;;;;27.40;9.10;;;;;;;8.33;100.00;99788.48;110395;1274;22405;-77
2023/10/24 04:57:09;;;;;;;23.10;10.10;;;;;;;8.33;100.00;99790.92;110405;1273;22166;-78
2023/10/24 04:59:39;;;;;;;22.10;9.30;;;;;;;8.33;100.00;99786.38;108815;1274;22560;-77
2023/10/24 05:02:10;;;;;;;28.30;11.60;;;;;;;8.34;100.00;99781.95;108760;1275;22586;-77
2023/10/24 05:04:41;;;;;;;25.60;11.50;;;;;;;8.36;100.00;99780.75;108377;1274;25586;-76
2023/10/24 05:07:12;;;;;;;26.90;10.60;;;;;;;8.37;100.00;99781.40;107370;1274;22533;-76
2023/10/24 05:09:42;;;;;;;32.30;11.20;;;;;;;8.38;100.00;99779.55;107253;1259;22644;-77
2023/10/24 05:12:13;;;;;;;34.70;11.30;;;;;;;8.39;100.00;99775.66;107214;1260;22546;-77
2023/10/24 05:14:44;;;;;;;28.00;11.30;;;;;;;8.40;100.00;99764.72;107267;1274;25600;-77
2023/10/24 05:17:15;;;;;;;31.40;13.10;;;;;;;8.43;100.00;99759.20;107437;1274;25341;-77
2023/10/24 05:19:45;;;;;;;27.40;12.40;;;;;;;8.45;100.00;99751.81;107446;1274;24181;-77
2023/10/24 05:22:16;;;;;;;36.30;15.30;;;;;;;8.47;100.00;99743.63;107376;1274;24355;-76
2023/10/24 05:24:47;;;;;;;36.80;14.40;;;;;;;8.50;100.00;99734.11;107262;1275;22522;-76
2023/10/24 05:27:17;;;;;;;36.50;15.30;;;;;;;8.52;100.00;99729.70;107354;1274;22540;-76
2023/10/24 05:29:48;;;;;;;32.70;16.10;;;;;;;8.54;100.00;99734.65;107235;1274;25370;-76
2023/10/24 05:32:19;;;;;;;38.80;16.70;;;;;;;8.56;100.00;99736.37;107406;1274;23152;-76
2023/10/24 05:34:49;;;;;;;42.20;18.20;;;;;;;8.58;100.00;99726.58;107320;1273;22534;-76
2023/10/24 05:37:20;;;;;;;38.70;15.90;;;;;;;8.59;100.00;99724.62;107247;1274;22540;-75
2023/10/24 05:39:51;;;;;;;32.60;15.10;;;;;;;8.61;100.00;99733.75;107323;1274;22551;-75
2023/10/24 05:42:22;;;;;;;37.30;18.20;;;;;;;8.61;100.00;99733.32;107390;1274;24333;-76
2023/10/24 05:44:53;;;;;;;52.50;29.20;;;;;;;8.62;100.00;99730.09;107262;1274;22527;-76
2023/10/24 05:47:23;;;;;;;39.30;19.90;;;;;;;8.62;100.00;99738.69;107429;1274;22635;-76
2023/10/24 05:49:54;;;;;;;37.70;16.70;;;;;;;8.62;100.00;99741.27;107318;1274;22524;-77
2023/10/24 05:52:25;;;;;;;35.40;14.40;;;;;;;8.61;100.00;99744.84;107354;1274;22523;-76
2023/10/24 05:54:56;;;;;;;34.30;13.80;;;;;;;8.60;100.00;99750.55;107369;1274;22633;-76
2023/10/24 05:57:28;;;;;;;30.30;12.60;;;;;;;8.59;100.00;99750.47;107389;1264;22538;-75
2023/10/24 05:59:59;;;;;;;33.00;14.70;;;;;;;8.58;100.00;99754.95;107508;1274;22543;-76
2023/10/24 06:02:30;;;;;;;39.60;16.10;;;;;;;8.56;100.00;99760.30;107398;1275;25331;-76
2023/10/24 06:05:00;;;;;;;44.80;19.10;;;;;;;8.57;100.00;99768.80;107341;1274;22524;-76
2023/10/24 06:07:32;;;;;;;44.30;19.30;;;;;;;8.56;100.00;99779.15;107325;1274;24240;-75
2023/10/24 06:10:03;;;;;;;46.40;19.60;;;;;;;8.55;100.00;99781.25;107295;1275;25366;-75
2023/10/24 06:12:34;;;;;;;40.00;18.50;;;;;;;8.53;100.00;99781.05;110382;1273;22350;-77
2023/10/24 06:15:08;;;;;;;40.90;18.30;;;;;;;8.53;100.00;99777.08;110432;1274;22237;-76
2023/10/24 06:17:39;;;;;;;38.10;16.90;;;;;;;8.54;100.00;99774.96;110437;1267;22156;-77
2023/10/24 06:20:11;;;;;;;37.20;14.80;;;;;;;8.56;100.00;99775.40;110555;1274;23407;-77
2023/10/24 06:22:42;;;;;;;53.10;23.80;;;;;;;8.60;100.00;99778.71;110451;1275;22318;-76
2023/10/24 06:25:13;;;;;;;43.50;21.40;;;;;;;8.64;100.00;99772.43;110453;1274;22131;-77
2023/10/24 06:27:44;;;;;;;41.90;19.60;;;;;;;8.69;100.00;99759.25;110457;1274;22164;-76
2023/10/24 06:30:15;;;;;;;36.70;15.60;;;;;;;8.73;100.00;99754.88;110440;1274;22993;-76
2023/10/24 06:32:46;;;;;;;42.20;16.70;;;;;;;8.77;100.00;99755.15;110388;1274;23134;-77
2023/10/24 06:35:16;;;;;;;38.30;16.50;;;;;;;8.81;100.00;99758.72;110422;1275;22166;-77
2023/10/24 06:37:47;;;;;;;41.20;14.80;;;;;;;8.87;100.00;99759.23;110457;1268;22266;-76
2023/10/24 06:40:18;;;;;;;39.40;15.70;;;;;;;8.92;100.00;99758.32;110424;1274;22363;-76
2023/10/24 06:42:51;;;;;;;38.80;14.90;;;;;;;8.96;100.00;99757.23;110391;1273;22933;-77
2023/10/24 06:45:22;;;;;;;37.70;15.60;;;;;;;9.00;100.00;99760.98;110469;1259;22186;-76
2023/10/24 06:47:52;;;;;;;39.20;16.20;;;;;;;9.04;100.00;99769.91;110391;1273;22320;-77
2023/10/24 06:50:23;;;;;;;40.00;15.90;;;;;;;9.08;100.00;99770.74;110422;1274;22256;-77
2023/10/24 06:52:53;;;;;;;40.10;16.10;;;;;;;9.12;100.00;99775.92;110440;1274;22151;-77
2023/10/24 06:55:24;;;;;;;35.40;15.40;;;;;;;9.16;100.00;99777.87;110414;1274;22150;-77
2023/10/24 06:57:55;;;;;;;31.80;14.70;;;;;;;9.19;100.00;99774.42;110416;1274;22278;-77
2023/10/24 07:00:28;;;;;;;34.00;13.50;;;;;;;9.22;100.00;99767.08;110466;1274;22365;-77
2023/10/24 07:02:59;;;;;;;34.80;12.80;;;;;;;9.25;100.00;99765.61;110455;1274;22153;-77
2023/10/24 07:05:32;;;;;;;29.70;12.80;;;;;;;9.28;100.00;99755.42;110438;1274;22421;-77
2023/10/24 07:08:04;;;;;;;31.90;13.40;;;;;;;9.31;100.00;99743.67;110466;1274;23251;-77
2023/10/24 07:10:35;;;;;;;31.30;13.30;;;;;;;9.35;100.00;99736.56;110469;1262;22854;-77
2023/10/24 07:13:06;;;;;;;30.50;13.00;;;;;;;9.39;100.00;99729.79;110417;1274;22342;-77
2023/10/24 07:15:36;;;;;;;30.10;13.30;;;;;;;9.44;100.00;99724.84;110473;1273;22402;-77
2023/10/24 07:18:08;;;;;;;36.50;14.70;;;;;;;9.47;100.00;99718.00;110434;1269;22946;-77
2023/10/24 07:20:39;;;;;;;32.40;13.10;;;;;;;9.51;100.00;99718.45;110433;1274;22169;-77
2023/10/24 07:23:10;;;;;;;33.00;12.90;;;;;;;9.56;100.00;99717.11;110418;1274;22937;-78
2023/10/24 07:25:41;;;;;;;31.70;12.80;;;;;;;9.60;100.00;99723.71;110447;1274;22179;-76
2023/10/24 07:28:12;;;;;;;28.00;12.80;;;;;;;9.64;100.00;99719.42;110472;1274;22232;-77
2023/10/24 07:30:42;;;;;;;34.10;12.90;;;;;;;9.69;100.00;99720.44;110457;1274;22830;-76
2023/10/24 07:33:13;;;;;;;32.10;13.10;;;;;;;9.73;100.00;99721.71;110413;1274;22414;-77
2023/10/24 07:35:46;;;;;;;31.50;12.70;;;;;;;9.77;100.00;99726.02;109023;1274;22813;-77
2023/10/24 07:38:16;;;;;;;32.80;12.60;;;;;;;9.82;100.00;99727.63;110437;1274;23017;-77
2023/10/24 07:40:48;;;;;;;34.00;12.90;;;;;;;9.89;100.00;99729.58;110401;1273;22239;-76
2023/10/24 07:43:19;;;;;;;35.40;14.00;;;;;;;9.95;100.00;99727.19;110432;1274;22260;-76
2023/10/24 07:45:53;;;;;;;36.70;14.10;;;;;;;10.01;100.00;99722.61;110479;1274;22169;-77
2023/10/24 07:48:24;;;;;;;34.10;13.10;;;;;;;10.06;100.00;99719.92;110447;1274;22209;-77
2023/10/24 07:50:56;;;;;;;30.70;12.60;;;;;;;10.11;100.00;99726.81;110419;1275;22171;-76
2023/10/24 07:53:27;;;;;;;32.00;14.00;;;;;;;10.16;100.00;99719.94;108986;1274;26007;-76
2023/10/24 07:55:58;;;;;;;33.50;13.90;;;;;;;10.21;100.00;99710.86;107258;1274;23253;-76
2023/10/24 07:58:30;;;;;;;33.60;14.80;;;;;;;10.25;100.00;99698.42;107331;1275;24266;-76
2023/10/24 08:01:04;;;;;;;32.10;14.80;;;;;;;10.29;100.00;99691.41;107391;1275;26638;-76
2023/10/24 08:03:35;;;;;;;34.80;14.50;;;;;;;10.32;100.00;99691.11;107440;1272;25096;-76
2023/10/24 08:06:06;;;;;;;32.00;14.10;;;;;;;10.36;100.00;99685.38;107447;1272;23427;-77
2023/10/24 08:08:39;;;;;;;35.90;16.60;;;;;;;10.41;100.00;99683.09;107500;1259;22534;-77
2023/10/24 08:11:10;;;;;;;32.80;15.00;;;;;;;10.45;100.00;99679.48;107385;1275;23411;-77
2023/10/24 08:13:41;;;;;;;33.10;13.80;;;;;;;10.49;100.00;99676.94;107326;1273;24316;-77
2023/10/24 08:16:12;;;;;;;38.70;15.20;;;;;;;10.52;100.00;99669.55;107319;1274;23034;-77
2023/10/24 08:18:44;;;;;;;30.90;13.30;;;;;;;10.55;100.00;99664.04;107398;1274;25415;-78
2023/10/24 08:21:16;;;;;;;31.10;13.30;;;;;;;10.59;100.00;99659.77;107454;1269;22539;-76
2023/10/24 08:23:47;;;;;;;30.50;13.10;;;;;;;10.62;100.00;99653.66;107587;1274;22544;-77
2023/10/24 08:26:17;;;;;;;30.60;12.50;;;;;;;10.64;100.00;99653.67;107527;1266;22634;-77
2023/10/24 08:28:48;;;;;;;33.10;13.50;;;;;;;10.69;100.00;99653.27;107624;1260;24232;-76
2023/10/24 08:31:19;;;;;;;33.10;12.40;;;;;;;10.72;100.00;99657.71;108999;1274;22613;-78
2023/10/24 08:33:49;;;;;;;29.60;12.90;;;;;;;10.77;100.00;99649.84;108833;1274;22540;-79
2023/10/24 08:36:21;;;;;;;35.50;14.00;;;;;;;10.81;100.00;99638.35;107347;1256;24256;-74
2023/10/24 08:38:51;;;;;;;29.80;13.30;;;;;;;10.86;100.00;99635.48;107311;1274;22550;-74
2023/10/24 08:41:22;;;;;;;28.10;13.30;;;;;;;10.89;100.00;99634.61;107226;1275;25224;-77
2023/10/24 08:43:54;;;;;;;29.40;13.60;;;;;;;10.93;100.00;99625.91;107288;1274;22560;-77
2023/10/24 08:46:26;;;;;;;32.90;13.00;;;;;;;10.96;100.00;99611.20;107315;1274;22648;-77
2023/10/24 08:48:59;;;;;;;30.50;12.50;;;;;;;10.99;100.00;99602.23;107414;1274;22535;-77
2023/10/24 08:51:30;;;;;;;36.20;13.10;;;;;;;11.05;100.00;99601.11;110382;1274;22333;-78
2023/10/24 08:54:01;;;;;;;28.20;12.60;;;;;;;11.11;100.00;99597.95;110418;1266;22776;-77
2023/10/24 08:56:33;;;;;;;27.20;11.50;;;;;;;11.17;100.00;99588.02;110476;1272;22296;-77
2023/10/24 08:59:05;;;;;;;31.30;12.40;;;;;;;11.22;100.00;99585.97;110496;1259;22154;-77
2023/10/24 09:01:38;;;;;;;33.60;11.70;;;;;;;11.27;100.00;99586.52;110302;1260;22362;-77
2023/10/24 09:04:09;;;;;;;30.00;11.30;;;;;;;11.35;100.00;99588.59;110385;1274;22149;-77
2023/10/24 09:06:40;;;;;;;29.40;11.60;;;;;;;11.43;100.00;99587.41;110440;1274;22231;-77
2023/10/24 09:09:12;;;;;;;26.80;11.20;;;;;;;11.52;100.00;99586.28;110442;1274;22344;-77
2023/10/24 09:11:58;;;;;;;28.40;10.50;;;;;;;11.61;100.00;99587.44;110436;1274;22273;-78
2023/10/24 09:14:30;;;;;;;32.50;10.30;;;;;;;11.70;100.00;99586.73;110431;1269;22437;-77
2023/10/24 09:17:04;;;;;;;24.70;9.40;;;;;;;11.77;100.00;99594.09;110416;1274;22146;-77
2023/10/24 09:19:35;;;;;;;28.30;10.50;;;;;;;11.81;100.00;99594.47;110466;1274;22285;-76
2023/10/24 09:22:06;;;;;;;27.10;10.30;;;;;;;11.86;100.00;99590.58;110480;1274;22368;-77
2023/10/24 09:24:36;;;;;;;25.70;10.80;;;;;;;11.91;100.00;99589.67;110428;1274;22325;-77
2023/10/24 09:27:07;;;;;;;23.40;9.30;;;;;;;11.98;100.00;99587.00;110447;1274;22293;-77
2023/10/24 09:29:38;;;;;;;28.60;10.80;;;;;;;12.05;100.00;99585.39;110438;1275;23265;-77
2023/10/24 09:32:16;;;;;;;31.10;10.90;;;;;;;12.11;100.00;99586.93;110397;1274;22163;-77
2023/10/24 09:34:48;;;;;;;32.00;10.70;;;;;;;12.18;100.00;99597.78;110495;1269;22232;-77
2023/10/24 09:37:19;;;;;;;26.40;10.20;;;;;;;12.26;100.00;99602.53;110476;1274;22317;-77
2023/10/24 09:39:57;;;;;;;29.40;12.10;;;;;;;12.33;100.00;99605.19;110455;1269;22303;-77
2023/10/24 09:42:30;;;;;;;27.60;10.30;;;;;;;12.44;100.00;99612.33;110459;1270;22672;-77
2023/10/24 09:45:03;;;;;;;27.50;9.20;;;;;;;12.54;100.00;99611.28;110418;1274;22212;-77
2023/10/24 09:47:34;;;;;;;25.00;9.50;;;;;;;12.64;100.00;99601.70;110445;1274;22558;-77
2023/10/24 09:50:07;;;;;;;24.70;9.10;;;;;;;12.73;100.00;99591.28;110471;1274;22184;-77
2023/10/24 09:52:39;;;;;;;25.60;8.80;;;;;;;12.80;100.00;99583.17;110462;1274;22278;-77
2023/10/24 09:55:11;;;;;;;25.70;10.80;;;;;;;12.88;100.00;99575.02;110479;1274;23001;-77
2023/10/24 09:57:44;;;;;;;23.30;9.80;;;;;;;12.96;100.00;99577.81;110442;1274;22174;-77
2023/10/24 10:00:16;;;;;;;23.00;10.70;;;;;;;13.02;100.00;99582.95;110483;1274;22123;-77
2023/10/24 10:02:48;;;;;;;25.80;9.60;;;;;;;13.08;100.00;99570.84;110440;1275;22499;-77
2023/10/24 10:05:22;;;;;;;24.00;9.40;;;;;;;13.11;100.00;99561.81;110460;1274;22931;-77
2023/10/24 10:07:55;;;;;;;22.50;8.60;;;;;;;13.16;100.00;99554.02;110464;1274;22795;-77
2023/10/24 10:10:26;;;;;;;25.40;9.50;;;;;;;13.21;100.00;99541.05;110454;1274;22531;-77
2023/10/24 10:13:02;;;;;;;24.60;9.20;;;;;;;13.26;100.00;99527.69;110464;1274;22196;-77
2023/10/24 10:15:56;;;;;;;23.70;9.10;;;;;;;13.30;100.00;99516.67;110474;1274;22384;-77
2023/10/24 10:18:43;;;;;;;26.70;9.00;;;;;;;13.35;100.00;99502.42;110465;1274;22201;-77
2023/10/24 10:21:25;;;;;;;27.10;11.10;;;;;;;13.40;100.00;99497.52;110439;1274;22632;-77
2023/10/24 10:24:09;;;;;;;25.50;8.50;;;;;;;13.45;100.00;99501.67;110453;1262;22177;-77
2023/10/24 10:27:00;;;;;;;25.50;8.30;;;;;;;13.51;100.00;99497.92;110439;1274;22207;-77
2023/10/24 10:29:47;;;;;;;25.80;9.00;;;;;;;13.57;100.00;99491.41;110430;1275;22132;-77
2023/10/24 10:32:31;;;;;;;24.20;9.30;;;;;;;13.63;100.00;99489.09;110395;1275;22168;-77
2023/10/24 10:35:02;;;;;;;27.80;9.50;;;;;;;13.70;100.00;99485.37;110423;1275;22197;-77
2023/10/24 10:37:36;;;;;;;25.40;9.20;;;;;;;13.79;100.00;99481.91;110467;1275;22658;-76
2023/10/24 10:40:27;;;;;;;24.20;8.70;;;;;;;13.87;100.00;99479.66;110471;1262;22163;-77
2023/10/24 10:42:59;;;;;;;24.80;7.30;;;;;;;13.95;100.00;99479.46;110398;1275;22170;-77
2023/10/24 10:45:31;;;;;;;25.10;8.90;;;;;;;14.00;100.00;99479.94;110438;1267;22417;-77
2023/10/24 10:48:04;;;;;;;23.10;7.90;;;;;;;14.05;100.00;99481.23;110496;1274;22326;-77
2023/10/24 10:50:39;;;;;;;20.00;7.10;;;;;;;14.08;100.00;99473.09;110446;1270;22128;-77
2023/10/24 10:53:36;;;;;;;16.70;5.40;;;;;;;14.11;100.00;99477.91;110487;1274;23525;-77
2023/10/24 10:56:18;;;;;;;21.80;6.90;;;;;;;14.15;100.00;99482.88;110461;1274;22236;-77
2023/10/24 10:59:16;;;;;;;22.30;7.20;;;;;;;14.20;100.00;99474.28;110469;1275;23130;-77
2023/10/24 11:02:06;;;;;;;24.10;7.20;;;;;;;14.24;100.00;99460.52;110460;1274;22457;-77
2023/10/24 11:04:36;;;;;;;21.10;6.80;;;;;;;14.28;100.00;99444.21;110476;1274;22156;-77
2023/10/24 11:07:07;;;;;;;17.70;6.60;;;;;;;14.33;100.00;99435.35;110472;1268;22954;-77
2023/10/24 11:09:38;;;;;;;19.20;6.10;;;;;;;14.38;100.00;99423.15;110469;1271;22219;-77
2023/10/24 11:12:29;;;;;;;19.20;5.70;;;;;;;14.43;100.00;99425.91;110478;1270;22207;-77
2023/10/24 11:15:25;;;;;;;18.20;6.30;;;;;;;14.50;100.00;99434.77;110399;1275;22319;-77
2023/10/24 11:17:56;;;;;;;16.00;4.80;;;;;;;14.55;100.00;99432.04;110441;1275;22201;-77
2023/10/24 11:20:27;;;;;;;18.60;4.40;;;;;;;14.60;100.00;99436.57;110453;1269;22205;-77
2023/10/24 11:22:58;;;;;;;17.50;5.80;;;;;;;14.67;100.00;99433.48;110478;1269;22896;-77
2023/10/24 11:25:29;;;;;;;15.30;5.50;;;;;;;14.74;100.00;99438.13;110364;1274;22198;-77
2023/10/24 11:28:09;;;;;;;20.40;5.40;;;;;;;14.80;100.00;99437.84;110465;1274;22200;-77
2023/10/24 11:30:39;;;;;;;16.30;5.50;;;;;;;14.86;100.00;99436.95;110436;1274;22270;-77
2023/10/24 11:33:10;;;;;;;17.00;4.90;;;;;;;14.91;100.00;99444.31;110329;1275;22173;-77
2023/10/24 11:35:41;;;;;;;18.30;4.40;;;;;;;14.95;100.00;99435.73;110449;1264;22964;-76